createdAt,value
2018-12-31T14:04:07.343Z,22.49
2018-12-31T14:05:07.241Z,22.50
2018-12-31T14:06:07.215Z,22.43
2018-12-31T14:07:07.178Z,22.37
2018-12-31T14:08:07.143Z,22.39
2018-12-31T14:09:07.111Z,22.34
2018-12-31T14:10:07.064Z,22.38
2018-12-31T14:11:07.021Z,22.38
2018-12-31T14:12:06.981Z,22.44
2018-12-31T14:13:06.940Z,22.46
2018-12-31T14:14:06.908Z,22.53
2018-12-31T14:15:06.858Z,22.56
2018-12-31T14:16:06.815Z,22.56
2018-12-31T14:17:06.773Z,22.57
2018-12-31T14:18:06.730Z,22.60
2018-12-31T14:19:06.701Z,22.53
2018-12-31T14:20:06.648Z,22.57
2018-12-31T14:21:06.605Z,22.57
2018-12-31T14:22:06.560Z,22.65
2018-12-31T14:23:06.508Z,22.56
2018-12-31T14:24:06.471Z,22.59
2018-12-31T14:25:06.406Z,22.56
2018-12-31T14:26:06.354Z,22.68
2018-12-31T14:27:06.302Z,22.57
2018-12-31T14:28:06.251Z,22.60
2018-12-31T14:29:06.198Z,22.59
2018-12-31T14:30:06.151Z,22.69
2018-12-31T14:31:06.087Z,22.67
2018-12-31T14:32:06.034Z,22.75
2018-12-31T14:33:05.976Z,22.72
2018-12-31T14:34:05.919Z,22.75
2018-12-31T14:35:05.879Z,22.74
2018-12-31T14:36:05.812Z,22.72
2018-12-31T14:37:05.756Z,22.74
2018-12-31T14:38:05.704Z,22.67
2018-12-31T14:39:05.646Z,22.74
2018-12-31T14:40:05.604Z,22.56
2018-12-31T14:41:05.538Z,22.69
2018-12-31T14:42:05.480Z,22.71
2018-12-31T14:43:05.421Z,22.65
2018-12-31T14:44:05.364Z,22.75
2018-12-31T14:45:05.325Z,22.77
2018-12-31T14:46:05.250Z,22.72
2018-12-31T14:47:05.192Z,22.74
2018-12-31T14:48:05.132Z,22.69
2018-12-31T14:49:05.077Z,22.65
2018-12-31T14:50:05.027Z,22.67
2018-12-31T14:51:04.978Z,22.53
2018-12-31T14:52:04.913Z,22.57
2018-12-31T14:53:04.858Z,22.67
2018-12-31T14:54:04.806Z,22.65
2018-12-31T14:55:04.753Z,22.57
2018-12-31T14:56:04.702Z,22.56
2018-12-31T14:57:04.632Z,22.56
2018-12-31T14:58:04.576Z,22.54
2018-12-31T14:59:04.531Z,22.62
2018-12-31T15:00:04.543Z,22.72
